createdAt,value
2023-09-09T00:02:26.158Z,704.42
2023-09-09T00:04:55.787Z,710.58
2023-09-09T00:07:22.892Z,725.50
2023-09-09T00:09:50.653Z,706.97
2023-09-09T00:12:17.252Z,705.85
2023-09-09T00:14:43.847Z,726.75
2023-09-09T00:17:10.384Z,718.38
2023-09-09T00:19:36.968Z,714.92
2023-09-09T00:22:03.664Z,720.08
2023-09-09T00:24:30.396Z,703.28
2023-09-09T00:26:56.971Z,713.90
2023-09-09T00:29:23.478Z,719.13
2023-09-09T00:31:51.399Z,730.00
2023-09-09T00:34:18.131Z,748.30
2023-09-09T00:36:44.690Z,703.60
2023-09-09T00:39:11.394Z,715.92
2023-09-09T00:41:38.093Z,731.80
2023-09-09T00:44:05.962Z,704.47
2023-09-09T00:46:32.762Z,699.95
2023-09-09T00:49:01.876Z,706.47
2023-09-09T00:51:28.628Z,723.50
2023-09-09T00:53:55.174Z,687.58
2023-09-09T00:56:21.777Z,715.15
2023-09-09T00:58:48.386Z,724.55
2023-09-09T01:01:15.212Z,783.35
2023-09-09T01:03:42.165Z,698.50
2023-09-09T01:06:09.128Z,720.55
2023-09-09T01:08:35.756Z,702.17
2023-09-09T01:11:02.263Z,705.97
2023-09-09T01:13:29.452Z,697.65
2023-09-09T01:15:56.135Z,695.30
2023-09-09T01:18:22.805Z,708.13
2023-09-09T01:21:00.805Z,703.35
2023-09-09T01:23:27.438Z,706.30
2023-09-09T01:25:54.009Z,695.25
2023-09-09T01:28:23.605Z,728.47
2023-09-09T01:30:50.800Z,699.53
2023-09-09T01:33:17.446Z,705.90
2023-09-09T01:35:44.580Z,718.80
2023-09-09T01:38:11.560Z,708.33
2023-09-09T01:40:38.181Z,711.42
2023-09-09T01:43:06.097Z,740.55
2023-09-09T01:45:32.696Z,700.83
2023-09-09T01:47:59.927Z,702.55
2023-09-09T01:50:26.744Z,691.17
2023-09-09T01:52:53.417Z,699.67
2023-09-09T01:55:19.903Z,741.47
2023-09-09T01:57:48.142Z,709.22
2023-09-09T02:03:28.574Z,689.40
2023-09-09T02:05:55.735Z,688.67
2023-09-09T02:08:22.618Z,698.65
2023-09-09T02:10:51.208Z,696.10
2023-09-09T02:13:17.887Z,742.42
2023-09-09T02:15:45.273Z,711.33
2023-09-09T02:18:11.785Z,695.85
2023-09-09T02:20:38.297Z,692.65
2023-09-09T02:23:04.952Z,731.00
2023-09-09T02:25:31.477Z,689.92
2023-09-09T02:27:58.054Z,690.75
2023-09-09T02:30:24.852Z,701.65
2023-09-09T02:32:51.592Z,699.85
2023-09-09T02:35:18.165Z,700.60
2023-09-09T02:37:44.895Z,741.42
2023-09-09T02:40:11.624Z,717.28
2023-09-09T02:42:38.163Z,714.85
2023-09-09T02:45:05.056Z,703.53
2023-09-09T02:47:31.604Z,695.63
2023-09-09T02:49:58.106Z,704.13
2023-09-09T02:52:24.811Z,711.42
2023-09-09T02:54:51.732Z,703.33
2023-09-09T02:57:19.081Z,698.95
2023-09-09T02:59:46.068Z,697.72
2023-09-09T03:02:14.128Z,695.22
2023-09-09T03:04:40.992Z,714.05
2023-09-09T03:07:07.816Z,709.58
2023-09-09T03:09:34.447Z,685.92
2023-09-09T03:12:02.732Z,691.60
2023-09-09T03:14:29.982Z,701.75
2023-09-09T03:16:57.855Z,689.05
2023-09-09T03:19:24.515Z,707.08
2023-09-09T03:21:51.045Z,710.40
2023-09-09T03:24:17.623Z,692.70
2023-09-09T03:26:44.173Z,695.67
2023-09-09T03:29:10.819Z,713.35
2023-09-09T03:31:37.394Z,696.42
2023-09-09T03:34:05.344Z,708.55
2023-09-09T03:36:32.934Z,672.85
2023-09-09T03:39:04.241Z,692.45
2023-09-09T03:41:31.343Z,680.17
2023-09-09T03:43:57.964Z,687.85
2023-09-09T03:46:24.681Z,711.17
2023-09-09T03:48:51.678Z,695.60
2023-09-09T03:51:18.418Z,711.13
2023-09-09T03:53:45.023Z,687.00
2023-09-09T03:56:11.640Z,722.30
2023-09-09T03:58:38.517Z,705.22
2023-09-09T04:01:09.625Z,714.65
2023-09-09T04:03:39.213Z,698.25
2023-09-09T04:06:08.872Z,700.63
2023-09-09T04:08:36.584Z,697.45
2023-09-09T04:11:04.504Z,714.30
2023-09-09T04:13:31.684Z,707.70
2023-09-09T04:15:59.115Z,697.38
2023-09-09T04:18:44.240Z,700.90
2023-09-09T04:21:14.267Z,703.30
2023-09-09T04:23:41.299Z,670.78
2023-09-09T04:26:08.548Z,736.17
2023-09-09T04:28:35.315Z,707.08
2023-09-09T04:31:02.272Z,699.30
2023-09-09T04:33:29.444Z,703.72
2023-09-09T04:35:56.448Z,688.67
2023-09-09T04:38:24.573Z,694.95
2023-09-09T04:40:52.014Z,701.72
2023-09-09T04:43:33.150Z,751.80
2023-09-09T04:45:59.905Z,718.72
2023-09-09T04:48:26.606Z,688.78
2023-09-09T04:50:53.938Z,701.00
2023-09-09T04:53:20.557Z,716.80
2023-09-09T04:55:47.186Z,718.78
2023-09-09T04:58:14.472Z,752.28
2023-09-09T05:00:41.663Z,721.33
2023-09-09T05:03:08.729Z,719.20
2023-09-09T05:05:35.461Z,728.55
2023-09-09T05:08:04.595Z,789.25
2023-09-09T05:10:35.084Z,695.47
2023-09-09T05:13:02.362Z,753.67
2023-09-09T05:15:29.255Z,736.90
2023-09-09T05:17:55.888Z,705.88
2023-09-09T05:20:22.616Z,746.60
2023-09-09T05:22:49.141Z,734.13
2023-09-09T05:25:15.765Z,761.85
2023-09-09T05:27:42.817Z,739.38
2023-09-09T05:30:09.402Z,728.17
2023-09-09T05:32:36.611Z,746.78
2023-09-09T05:35:04.667Z,751.80
2023-09-09T05:37:33.189Z,756.78
2023-09-09T05:40:04.053Z,746.10
2023-09-09T05:42:31.273Z,769.50
2023-09-09T05:44:57.966Z,767.55
2023-09-09T05:47:24.566Z,793.67
2023-09-09T05:49:51.227Z,802.05
2023-09-09T05:52:17.843Z,825.50
2023-09-09T05:54:44.908Z,818.40
2023-09-09T05:57:12.418Z,820.28
2023-09-09T05:59:39.448Z,836.85
2023-09-09T06:02:07.053Z,828.80
2023-09-09T06:04:33.730Z,856.53
2023-09-09T06:07:00.324Z,876.65
2023-09-09T06:09:27.523Z,871.95
2023-09-09T06:11:54.326Z,877.63
2023-09-09T06:14:20.885Z,890.03
2023-09-09T06:16:47.475Z,914.33
2023-09-09T06:19:13.973Z,951.25
2023-09-09T06:21:40.808Z,938.92
2023-09-09T06:24:08.396Z,942.78
2023-09-09T06:26:35.785Z,953.08
2023-09-09T06:29:02.579Z,983.53
2023-09-09T06:31:29.596Z,997.95
2023-09-09T06:33:56.884Z,996.13
2023-09-09T06:36:23.922Z,1005.13
2023-09-09T06:38:51.098Z,1026.85
2023-09-09T06:41:17.743Z,1042.00
2023-09-09T06:43:44.595Z,1117.85
2023-09-09T06:46:11.619Z,1063.90
2023-09-09T06:48:38.389Z,1059.75
2023-09-09T06:51:04.987Z,1055.47
2023-09-09T06:53:31.567Z,1064.22
2023-09-09T06:55:58.132Z,1054.35
2023-09-09T06:58:24.646Z,1077.38
2023-09-09T07:00:52.040Z,1073.60
2023-09-09T07:03:22.076Z,1076.50
2023-09-09T07:05:48.922Z,1066.78
2023-09-09T07:08:15.585Z,1074.03
2023-09-09T07:10:54.614Z,1079.82
2023-09-09T07:13:22.933Z,1082.63
2023-09-09T07:15:53.498Z,1067.60
2023-09-09T07:18:21.094Z,1063.15
2023-09-09T07:20:48.090Z,1062.32
2023-09-09T07:23:15.256Z,1070.50
2023-09-09T07:25:42.635Z,1055.50
2023-09-09T07:28:09.222Z,1064.32
2023-09-09T07:30:35.837Z,1059.00
2023-09-09T07:33:02.371Z,1058.43
2023-09-09T07:35:28.845Z,1044.60
2023-09-09T07:37:55.298Z,1040.13
2023-09-09T07:40:22.099Z,1045.03
2023-09-09T07:42:49.960Z,1049.55
2023-09-09T07:45:16.539Z,1032.70
2023-09-09T07:47:43.595Z,1031.95
2023-09-09T07:50:11.937Z,1043.95
2023-09-09T07:52:38.737Z,1024.65
2023-09-09T07:55:05.795Z,1046.70
2023-09-09T07:57:32.370Z,1030.57
2023-09-09T07:59:58.871Z,1028.40
2023-09-09T08:02:25.348Z,1023.92
2023-09-09T08:04:51.934Z,1032.95
2023-09-09T08:07:18.567Z,1045.57
2023-09-09T08:09:45.565Z,1030.28
2023-09-09T08:12:12.089Z,1031.13
2023-09-09T08:14:38.686Z,1029.22
2023-09-09T08:17:05.451Z,1042.60
2023-09-09T08:19:32.138Z,1046.25
2023-09-09T08:21:58.710Z,1034.28
2023-09-09T08:24:25.243Z,1032.05
2023-09-09T08:26:51.818Z,1040.05
2023-09-09T08:29:18.292Z,1036.60
2023-09-09T08:31:47.332Z,1059.13
2023-09-09T08:34:14.029Z,1063.57
2023-09-09T08:36:40.528Z,1067.18
2023-09-09T08:39:07.061Z,1095.03
2023-09-09T08:41:36.554Z,1070.47
2023-09-09T08:44:06.203Z,1070.05
2023-09-09T08:46:32.866Z,1069.95
2023-09-09T08:49:00.569Z,1070.93
2023-09-09T08:51:29.819Z,1060.18
2023-09-09T08:53:56.588Z,1076.00
2023-09-09T08:56:23.870Z,1062.88
2023-09-09T08:58:50.452Z,1071.43
2023-09-09T09:01:18.132Z,1082.40
2023-09-09T09:03:46.480Z,1071.43
2023-09-09T09:06:13.136Z,1084.32
2023-09-09T09:08:39.706Z,1081.47
2023-09-09T09:11:07.026Z,1078.45
2023-09-09T09:13:37.004Z,1084.88
2023-09-09T09:16:03.987Z,1093.20
2023-09-09T09:18:30.562Z,1087.22
2023-09-09T09:21:07.680Z,1073.30
2023-09-09T09:23:34.980Z,1083.25
2023-09-09T09:26:01.739Z,1085.28
2023-09-09T09:28:29.047Z,1090.88
2023-09-09T09:30:55.761Z,1086.38
2023-09-09T09:33:26.177Z,1097.75
2023-09-09T09:35:52.866Z,1086.22
2023-09-09T09:38:19.448Z,1105.35
2023-09-09T09:40:46.096Z,1097.55
2023-09-09T09:43:21.659Z,1097.45
2023-09-09T09:45:48.534Z,1101.03
2023-09-09T09:48:28.002Z,1098.93
2023-09-09T09:50:54.956Z,1095.53
2023-09-09T09:53:21.495Z,1096.05
2023-09-09T09:55:51.384Z,1099.45
2023-09-09T09:58:18.090Z,1098.30
2023-09-09T10:00:44.776Z,1090.10
2023-09-09T10:03:12.670Z,1093.00
2023-09-09T10:05:39.883Z,1097.88
2023-09-09T10:08:06.355Z,1086.55
2023-09-09T10:10:34.794Z,1099.63
2023-09-09T10:13:01.386Z,1094.22
2023-09-09T10:15:28.760Z,1087.85
2023-09-09T10:17:55.753Z,1135.95
2023-09-09T10:20:23.406Z,1088.30
2023-09-09T10:22:51.461Z,1088.60
2023-09-09T10:25:18.308Z,1304.97
2023-09-09T10:27:45.793Z,1097.13
2023-09-09T10:30:12.557Z,1106.53
2023-09-09T10:32:39.556Z,1101.40
2023-09-09T10:35:09.764Z,1092.53
2023-09-09T10:37:37.658Z,1099.07
2023-09-09T10:40:05.542Z,1099.25
2023-09-09T10:42:32.910Z,1100.60
2023-09-09T10:45:19.958Z,1099.35
2023-09-09T10:48:01.389Z,1114.55
2023-09-09T10:50:47.625Z,1095.43
2023-09-09T10:53:27.736Z,1098.95
2023-09-09T10:55:55.538Z,1098.65
2023-09-09T10:58:22.887Z,1110.38
2023-09-09T11:00:50.091Z,1096.53
2023-09-09T11:03:16.835Z,1093.38
2023-09-09T11:06:09.095Z,1106.32
2023-09-09T11:08:41.779Z,1099.60
2023-09-09T11:11:18.782Z,1096.95
2023-09-09T11:14:05.754Z,1104.25
2023-09-09T11:16:33.578Z,1105.93
2023-09-09T11:19:07.765Z,1098.43
2023-09-09T11:21:38.442Z,1102.28
2023-09-09T11:24:05.369Z,1093.00
2023-09-09T11:26:31.989Z,1104.88
2023-09-09T11:28:58.691Z,1102.68
2023-09-09T11:31:25.999Z,1116.85
2023-09-09T11:33:55.594Z,1100.18
2023-09-09T11:36:22.130Z,1108.00
2023-09-09T11:38:48.669Z,1108.75
2023-09-09T11:41:19.408Z,1110.75
2023-09-09T11:43:47.401Z,1113.30
2023-09-09T11:46:14.193Z,1112.40
2023-09-09T11:48:40.842Z,1118.43
2023-09-09T11:51:07.508Z,1108.88
2023-09-09T11:53:34.089Z,1115.35
2023-09-09T11:56:04.298Z,1106.57
2023-09-09T11:58:43.030Z,1111.35
2023-09-09T12:01:11.716Z,1116.65
2023-09-09T12:03:38.919Z,1101.38
2023-09-09T12:06:07.456Z,1194.45
2023-09-09T12:08:34.295Z,1116.47
2023-09-09T12:11:02.715Z,1121.25
2023-09-09T12:13:29.397Z,1113.85
2023-09-09T12:16:05.786Z,1113.90
2023-09-09T12:18:33.395Z,1130.65
2023-09-09T12:21:04.765Z,1104.88
2023-09-09T12:23:35.400Z,1130.18
2023-09-09T12:26:14.781Z,1121.10
2023-09-09T12:28:42.265Z,1138.93
2023-09-09T12:31:09.491Z,1145.32
2023-09-09T12:33:40.999Z,1128.13
2023-09-09T12:36:15.743Z,1128.15
2023-09-09T12:38:42.392Z,1119.15
2023-09-09T12:41:12.555Z,1129.40
2023-09-09T12:43:39.309Z,1133.43
2023-09-09T12:46:07.327Z,1129.28
2023-09-09T12:48:50.234Z,1121.53
2023-09-09T12:51:16.848Z,1117.45
2023-09-09T12:53:43.386Z,1123.57
2023-09-09T12:56:09.989Z,1128.53
2023-09-09T12:58:36.564Z,1122.80
2023-09-09T13:01:03.173Z,1119.63
2023-09-09T13:03:29.857Z,1126.68
2023-09-09T13:05:56.575Z,1118.82
2023-09-09T13:08:23.081Z,1121.57
2023-09-09T13:10:49.690Z,1138.03
2023-09-09T13:13:16.276Z,1134.03
2023-09-09T13:15:45.903Z,1125.45
2023-09-09T13:18:12.556Z,1129.72
2023-09-09T13:20:39.364Z,1135.28
2023-09-09T13:23:06.005Z,1124.57
2023-09-09T13:25:32.688Z,1124.07
2023-09-09T13:28:00.498Z,1132.10
2023-09-09T13:30:27.116Z,1132.70
2023-09-09T13:32:53.763Z,1121.03
2023-09-09T13:35:20.414Z,1123.60
2023-09-09T13:37:47.037Z,1113.13
2023-09-09T13:40:13.834Z,1121.13
2023-09-09T13:42:41.934Z,1122.90
2023-09-09T13:45:11.019Z,1122.10
2023-09-09T13:47:38.372Z,1115.80
2023-09-09T13:50:05.944Z,1116.75
2023-09-09T13:52:34.216Z,1127.78
2023-09-09T13:55:01.367Z,1122.22
2023-09-09T13:57:27.889Z,1113.22
2023-09-09T13:59:54.733Z,1127.03
2023-09-09T14:02:21.548Z,1112.28
2023-09-09T14:04:48.267Z,1113.20
2023-09-09T14:07:14.845Z,1111.10
2023-09-09T14:09:41.482Z,1114.30
2023-09-09T14:12:08.204Z,1113.95
2023-09-09T14:14:35.278Z,1126.00
2023-09-09T14:17:01.838Z,1115.72
2023-09-09T14:19:29.232Z,1118.07
2023-09-09T14:21:55.786Z,1115.70
2023-09-09T14:24:22.348Z,1117.85
2023-09-09T14:26:49.058Z,1289.78
2023-09-09T14:29:15.572Z,1110.53
2023-09-09T14:31:42.075Z,1111.47
2023-09-09T14:34:09.436Z,1105.72
2023-09-09T14:36:36.021Z,1104.30
2023-09-09T14:39:03.543Z,1115.68
2023-09-09T14:41:30.061Z,1111.78
2023-09-09T14:43:56.609Z,1114.13
2023-09-09T14:46:25.208Z,1125.80
2023-09-09T14:48:56.847Z,1103.78
2023-09-09T14:51:23.515Z,1108.32
2023-09-09T14:53:50.039Z,1104.13
2023-09-09T14:56:16.728Z,1100.50
2023-09-09T14:58:43.318Z,1107.30
2023-09-09T15:01:09.839Z,1108.57
2023-09-09T15:03:36.662Z,1104.10
2023-09-09T15:06:03.199Z,1111.32
2023-09-09T15:08:29.764Z,1104.97
2023-09-09T15:10:56.311Z,1108.57
2023-09-09T15:13:22.883Z,1096.45
2023-09-09T15:15:50.006Z,1089.85
2023-09-09T15:18:16.792Z,1098.60
2023-09-09T15:20:43.382Z,1097.25
2023-09-09T15:23:10.015Z,1105.40
2023-09-09T15:25:36.836Z,1096.68
2023-09-09T15:28:03.604Z,1102.32
2023-09-09T15:30:30.832Z,1099.35
2023-09-09T15:32:57.554Z,1094.68
2023-09-09T15:35:25.124Z,1084.50
2023-09-09T15:37:51.765Z,1086.70
2023-09-09T15:40:18.484Z,1102.32
2023-09-09T15:42:45.025Z,1098.95
2023-09-09T15:45:11.565Z,1103.70
2023-09-09T15:47:39.556Z,1118.95
2023-09-09T15:50:06.477Z,1109.05
2023-09-09T15:52:33.220Z,1120.13
2023-09-09T15:55:04.984Z,1109.60
2023-09-09T15:57:33.101Z,1092.32
2023-09-09T15:59:59.691Z,1112.18
2023-09-09T16:02:26.528Z,1102.72
2023-09-09T16:04:54.729Z,1098.82
2023-09-09T16:07:22.528Z,1089.30
2023-09-09T16:09:49.076Z,1086.30
2023-09-09T16:12:15.691Z,1091.68
2023-09-09T16:14:42.374Z,1092.53
2023-09-09T16:17:08.941Z,1097.40
2023-09-09T16:19:38.953Z,1107.05
2023-09-09T16:22:11.113Z,1102.80
2023-09-09T16:24:39.640Z,1082.78
2023-09-09T16:27:06.220Z,1081.43
2023-09-09T16:29:32.806Z,1079.03
2023-09-09T16:31:59.444Z,1069.28
2023-09-09T16:34:26.207Z,1075.22
2023-09-09T16:36:54.046Z,1063.28
2023-09-09T16:39:21.884Z,1058.60
2023-09-09T16:41:48.526Z,1074.38
2023-09-09T16:44:15.068Z,1050.35
2023-09-09T16:46:41.774Z,1046.68
2023-09-09T16:49:08.329Z,1045.82
2023-09-09T16:51:34.950Z,1048.18
2023-09-09T16:54:02.073Z,1045.03
2023-09-09T16:56:28.597Z,1044.75
2023-09-09T16:58:55.230Z,1033.15
2023-09-09T17:01:22.963Z,1045.70
2023-09-09T17:03:49.703Z,1036.00
2023-09-09T17:06:16.278Z,1028.10
2023-09-09T17:08:42.849Z,1029.57
2023-09-09T17:11:09.315Z,1010.55
2023-09-09T17:13:36.345Z,1023.42
2023-09-09T17:16:05.024Z,1015.65
2023-09-09T17:18:31.651Z,1010.15
2023-09-09T17:20:59.063Z,1000.92
2023-09-09T17:23:27.042Z,1005.58
2023-09-09T17:26:00.464Z,999.67
2023-09-09T17:28:30.256Z,1001.53
2023-09-09T17:30:56.892Z,994.47
2023-09-09T17:33:23.451Z,991.40
2023-09-09T17:35:50.263Z,999.70
2023-09-09T17:38:16.792Z,987.50
2023-09-09T17:40:43.782Z,996.80
2023-09-09T17:43:10.486Z,1008.17
2023-09-09T17:45:37.214Z,989.65
2023-09-09T17:48:03.944Z,975.33
2023-09-09T17:50:30.572Z,992.58
2023-09-09T17:52:57.081Z,976.83
2023-09-09T17:55:23.668Z,979.58
2023-09-09T17:57:50.285Z,993.83
2023-09-09T18:00:18.439Z,984.08
2023-09-09T18:02:45.958Z,978.30
2023-09-09T18:05:12.788Z,962.35
2023-09-09T18:07:39.622Z,962.33
2023-09-09T18:10:06.531Z,960.75
2023-09-09T18:12:33.161Z,961.22
2023-09-09T18:14:59.858Z,975.30
2023-09-09T18:17:26.436Z,965.97
2023-09-09T18:19:53.192Z,954.15
2023-09-09T18:22:19.799Z,954.03
2023-09-09T18:24:46.384Z,950.00
2023-09-09T18:27:12.851Z,958.75
2023-09-09T18:29:39.565Z,951.63
2023-09-09T18:32:06.604Z,933.40
2023-09-09T18:34:33.363Z,949.88
2023-09-09T18:37:04.895Z,946.00
2023-09-09T18:39:31.938Z,936.00
2023-09-09T18:41:58.536Z,927.92
2023-09-09T18:44:25.323Z,931.67
2023-09-09T18:46:52.245Z,930.75
2023-09-09T18:49:18.964Z,928.08
2023-09-09T18:51:45.901Z,939.20
2023-09-09T18:54:12.596Z,924.35
2023-09-09T18:56:39.534Z,914.47
2023-09-09T18:59:06.333Z,918.80
2023-09-09T19:01:33.204Z,913.10
2023-09-09T19:04:00.035Z,904.50
2023-09-09T19:06:26.787Z,905.55
2023-09-09T19:08:53.352Z,914.95
2023-09-09T19:11:19.940Z,910.95
2023-09-09T19:13:46.488Z,917.13
2023-09-09T19:16:13.198Z,941.42
2023-09-09T19:18:40.179Z,927.90
2023-09-09T19:21:07.162Z,888.60
2023-09-09T19:23:33.721Z,887.08
2023-09-09T19:26:00.323Z,887.33
2023-09-09T19:28:26.977Z,897.58
2023-09-09T19:30:53.548Z,883.78
2023-09-09T19:33:20.261Z,880.13
2023-09-09T19:35:46.839Z,910.97
2023-09-09T19:38:13.345Z,886.35
2023-09-09T19:40:40.110Z,881.45
2023-09-09T19:43:08.527Z,885.47
2023-09-09T19:45:35.215Z,870.47
2023-09-09T19:48:01.849Z,878.88
2023-09-09T19:50:29.170Z,886.10
2023-09-09T19:52:56.305Z,876.83
2023-09-09T19:55:22.957Z,876.10
2023-09-09T19:57:49.549Z,869.17
2023-09-09T20:00:16.311Z,871.35
2023-09-09T20:02:43.046Z,875.33
2023-09-09T20:05:10.198Z,860.97
2023-09-09T20:07:36.890Z,870.75
2023-09-09T20:10:12.924Z,872.95
2023-09-09T20:12:40.454Z,856.63
2023-09-09T20:15:07.396Z,855.78
2023-09-09T20:17:34.139Z,868.33
2023-09-09T20:20:00.886Z,836.08
2023-09-09T20:22:29.568Z,854.47
2023-09-09T20:24:56.469Z,840.55
2023-09-09T20:27:23.189Z,833.38
2023-09-09T20:29:49.739Z,835.75
2023-09-09T20:32:16.437Z,841.85
2023-09-09T20:34:43.087Z,857.40
2023-09-09T20:37:09.725Z,840.35
2023-09-09T20:39:36.357Z,842.50
2023-09-09T20:42:03.481Z,847.15
2023-09-09T20:44:30.842Z,836.80
2023-09-09T20:46:57.483Z,834.55
2023-09-09T20:49:24.212Z,838.08
2023-09-09T20:51:50.874Z,836.60
2023-09-09T20:54:17.455Z,831.13
2023-09-09T20:56:44.151Z,817.00
2023-09-09T20:59:10.882Z,824.40
2023-09-09T21:01:37.585Z,847.38
2023-09-09T21:04:04.568Z,821.63
2023-09-09T21:06:31.377Z,814.20
2023-09-09T21:08:57.942Z,817.88
2023-09-09T21:11:24.448Z,806.17
2023-09-09T21:13:51.082Z,825.53
2023-09-09T21:16:17.862Z,815.63
2023-09-09T21:18:47.437Z,807.13
2023-09-09T21:21:14.582Z,798.97
2023-09-09T21:23:41.898Z,806.40
2023-09-09T21:26:08.843Z,793.53
2023-09-09T21:28:35.777Z,809.65
2023-09-09T21:31:02.833Z,886.90
2023-09-09T21:33:29.903Z,806.05
2023-09-09T21:35:56.618Z,793.38
2023-09-09T21:38:23.196Z,788.80
2023-09-09T21:40:49.819Z,799.42
2023-09-09T21:43:18.237Z,791.17
2023-09-09T21:45:45.099Z,792.92
2023-09-09T21:48:11.814Z,792.03
2023-09-09T21:50:38.417Z,791.90
2023-09-09T21:53:05.085Z,785.33
2023-09-09T21:55:31.903Z,795.88
2023-09-09T21:57:58.648Z,803.60
2023-09-09T22:00:25.322Z,793.20
2023-09-09T22:02:52.371Z,790.40
2023-09-09T22:05:19.423Z,788.97
2023-09-09T22:07:46.119Z,788.67
2023-09-09T22:10:12.802Z,782.80
2023-09-09T22:12:39.501Z,799.25
2023-09-09T22:15:10.143Z,774.88
2023-09-09T22:17:37.342Z,783.00
2023-09-09T22:20:09.168Z,793.97
2023-09-09T22:22:39.588Z,771.78
2023-09-09T22:25:08.338Z,793.10
2023-09-09T22:27:34.933Z,779.88
2023-09-09T22:30:01.572Z,759.28
2023-09-09T22:32:28.228Z,778.38
2023-09-09T22:34:58.426Z,775.80
2023-09-09T22:37:25.142Z,767.72
2023-09-09T22:39:51.946Z,772.78
2023-09-09T22:42:18.482Z,766.70
2023-09-09T22:44:45.056Z,775.80
2023-09-09T22:47:11.690Z,765.70
2023-09-09T22:49:40.468Z,786.08
2023-09-09T22:52:08.428Z,768.63
2023-09-09T22:54:35.417Z,756.53
2023-09-09T22:57:02.108Z,771.53
2023-09-09T22:59:28.857Z,760.28
2023-09-09T23:01:55.431Z,761.97
2023-09-09T23:04:22.276Z,751.08
2023-09-09T23:06:48.955Z,755.10
2023-09-09T23:09:15.604Z,761.08
2023-09-09T23:11:42.261Z,762.72
2023-09-09T23:14:08.844Z,769.17
2023-09-09T23:16:38.529Z,772.45
2023-09-09T23:19:06.481Z,755.47
2023-09-09T23:21:36.192Z,750.75
2023-09-09T23:24:05.036Z,760.05
2023-09-09T23:26:31.683Z,740.30
2023-09-09T23:28:58.666Z,766.58
2023-09-09T23:31:25.419Z,765.42
2023-09-09T23:33:52.116Z,749.13
2023-09-09T23:36:18.742Z,749.50
2023-09-09T23:38:45.404Z,755.10
2023-09-09T23:41:12.188Z,741.83
2023-09-09T23:43:38.920Z,771.08
2023-09-09T23:46:05.922Z,757.75
2023-09-09T23:48:32.749Z,754.03
2023-09-09T23:51:00.099Z,727.72
2023-09-09T23:53:26.968Z,751.67
2023-09-09T23:55:53.686Z,752.40
2023-09-09T23:58:20.484Z,744.13
